createdAt,value
2023-05-10T00:01:22.936Z,99348.97
2023-05-10T00:03:50.627Z,99359.31
2023-05-10T00:06:18.328Z,99348.97
2023-05-10T00:08:46.904Z,99349.84
2023-05-10T00:11:14.513Z,99351.56
2023-05-10T00:13:42.211Z,99353.28
2023-05-10T00:16:11.149Z,99349.81
2023-05-10T00:18:38.761Z,99349.00
2023-05-10T00:21:06.847Z,99348.13
2023-05-10T00:23:34.395Z,99345.53
2023-05-10T00:26:01.920Z,99341.22
2023-05-10T00:28:29.537Z,99341.22
2023-05-10T00:30:57.849Z,99341.19
2023-05-10T00:33:26.860Z,99344.63
2023-05-10T00:35:54.447Z,99339.47
2023-05-10T00:38:22.040Z,99337.78
2023-05-10T00:40:49.735Z,99340.34
2023-05-10T00:43:25.239Z,99343.78
2023-05-10T00:45:53.023Z,99349.81
2023-05-10T00:48:21.109Z,99351.53
2023-05-10T00:50:50.323Z,99355.00
2023-05-10T00:53:18.774Z,99361.03
2023-05-10T00:55:46.620Z,99350.66
2023-05-10T00:58:14.895Z,99359.28
2023-05-10T01:00:44.370Z,99356.72
2023-05-10T01:03:12.410Z,99355.00
2023-05-10T01:05:40.169Z,99361.03
2023-05-10T01:08:09.546Z,99355.84
2023-05-10T01:10:37.191Z,99357.59
2023-05-10T01:13:05.032Z,99352.41
2023-05-10T01:15:33.785Z,99353.28
2023-05-10T01:18:02.386Z,99356.75
2023-05-10T01:20:37.592Z,99361.94
2023-05-10T01:23:33.509Z,99358.47
2023-05-10T01:26:26.300Z,99358.47
2023-05-10T01:29:19.596Z,99360.19
2023-05-10T01:32:16.877Z,99352.44
2023-05-10T01:34:53.534Z,99350.69
2023-05-10T01:37:27.162Z,99361.91
2023-05-10T01:40:03.303Z,99348.09
2023-05-10T01:42:36.848Z,99341.19
2023-05-10T01:45:13.195Z,99345.50
2023-05-10T01:47:45.350Z,99342.91
2023-05-10T01:50:23.178Z,99342.91
2023-05-10T01:52:55.464Z,99346.34
2023-05-10T01:55:26.667Z,99348.06
2023-05-10T01:58:00.924Z,99348.94
2023-05-10T02:00:30.707Z,99350.66
2023-05-10T02:03:02.273Z,99356.69
2023-05-10T02:05:31.698Z,99361.00
2023-05-10T02:08:01.675Z,99360.13
2023-05-10T02:10:30.490Z,99361.88
2023-05-10T02:13:01.301Z,99356.69
2023-05-10T02:15:30.432Z,99361.00
2023-05-10T02:18:01.772Z,99359.28
2023-05-10T02:20:30.362Z,99357.56
2023-05-10T02:22:59.473Z,99354.09
2023-05-10T02:25:28.908Z,99364.47
2023-05-10T02:27:58.794Z,99365.34
2023-05-10T02:30:27.206Z,99369.63
2023-05-10T02:41:23.395Z,99382.56
2023-05-10T02:43:52.657Z,99372.25
2023-05-10T02:46:20.471Z,99372.25
2023-05-10T02:48:48.104Z,99375.69
2023-05-10T02:51:18.795Z,99377.41
2023-05-10T02:53:48.848Z,99382.59
2023-05-10T02:56:26.956Z,99375.69
2023-05-10T02:58:54.693Z,99375.72
2023-05-10T03:01:22.393Z,99383.47
2023-05-10T03:03:50.303Z,99384.28
2023-05-10T03:06:18.195Z,99374.81
2023-05-10T03:08:46.847Z,99374.84
2023-05-10T03:11:32.410Z,99375.69
2023-05-10T03:14:15.936Z,99390.38
2023-05-10T03:16:48.737Z,99384.31
2023-05-10T03:19:24.167Z,99389.50
2023-05-10T03:21:54.046Z,99398.13
2023-05-10T03:24:24.010Z,99399.00
2023-05-10T03:26:57.567Z,99406.75
2023-05-10T03:29:27.577Z,99406.75
2023-05-10T03:31:55.638Z,99410.19
2023-05-10T03:34:25.942Z,99416.22
2023-05-10T03:36:54.016Z,99415.34
2023-05-10T03:39:22.236Z,99415.34
2023-05-10T03:41:55.961Z,99418.78
2023-05-10T03:44:23.587Z,99419.63
2023-05-10T03:46:51.304Z,99420.50
2023-05-10T03:49:18.935Z,99418.75
2023-05-10T03:51:46.596Z,99423.91
2023-05-10T03:54:14.177Z,99427.38
2023-05-10T03:56:42.522Z,99423.94
2023-05-10T03:59:11.519Z,99432.56
2023-05-10T04:01:39.095Z,99425.69
2023-05-10T04:04:06.947Z,99431.69
2023-05-10T04:06:34.776Z,99430.84
2023-05-10T04:09:05.269Z,99430.84
2023-05-10T04:11:32.893Z,99425.66
2023-05-10T04:14:00.412Z,99435.16
2023-05-10T04:16:29.413Z,99433.44
2023-05-10T04:18:57.100Z,99424.81
2023-05-10T04:21:24.626Z,99429.13
2023-05-10T04:23:52.433Z,99434.28
2023-05-10T04:26:20.049Z,99434.28
2023-05-10T04:28:47.657Z,99437.75
2023-05-10T04:31:15.624Z,99436.91
2023-05-10T04:33:44.547Z,99442.94
2023-05-10T04:36:12.530Z,99438.66
2023-05-10T04:38:40.189Z,99442.09
2023-05-10T04:41:08.483Z,99438.66
2023-05-10T04:43:37.039Z,99437.78
2023-05-10T04:46:04.871Z,99444.72
2023-05-10T04:48:32.695Z,99443.84
2023-05-10T04:51:01.748Z,99440.44
2023-05-10T04:53:29.365Z,99451.66
2023-05-10T04:55:56.947Z,99450.81
2023-05-10T04:58:24.550Z,99449.97
2023-05-10T05:00:52.166Z,99448.22
2023-05-10T05:03:19.797Z,99446.53
2023-05-10T05:05:47.376Z,99450.84
2023-05-10T05:08:16.535Z,99449.97
2023-05-10T05:10:44.106Z,99453.41
2023-05-10T05:13:11.678Z,99455.19
2023-05-10T05:15:39.267Z,99452.56
2023-05-10T05:18:06.895Z,99455.16
2023-05-10T05:20:34.802Z,99449.97
2023-05-10T05:23:02.368Z,99456.94
2023-05-10T05:25:31.287Z,99456.94
2023-05-10T05:27:58.886Z,99463.00
2023-05-10T05:30:26.512Z,99455.22
2023-05-10T05:32:54.147Z,99466.44
2023-05-10T05:35:21.848Z,99464.69
2023-05-10T05:37:49.358Z,99462.97
2023-05-10T05:40:17.042Z,99460.34
2023-05-10T05:42:46.015Z,99457.78
2023-05-10T05:45:14.890Z,99456.94
2023-05-10T05:47:42.680Z,99459.53
2023-05-10T05:50:11.437Z,99469.00
2023-05-10T05:52:39.010Z,99468.16
2023-05-10T05:55:07.031Z,99477.66
2023-05-10T05:57:35.265Z,99475.94
2023-05-10T06:00:04.899Z,99469.84
2023-05-10T06:02:40.315Z,99469.84
2023-05-10T06:05:09.141Z,99476.78
2023-05-10T06:07:36.750Z,99476.81
2023-05-10T06:10:04.788Z,99476.78
2023-05-10T06:12:32.536Z,99489.75
2023-05-10T06:15:00.172Z,99486.28
2023-05-10T06:17:29.721Z,99487.16
2023-05-10T06:19:57.507Z,99495.78
2023-05-10T06:22:25.105Z,99500.97
2023-05-10T06:24:52.695Z,99501.84
2023-05-10T06:27:20.247Z,99510.47
2023-05-10T06:29:49.197Z,99508.75
2023-05-10T06:32:18.091Z,99508.75
2023-05-10T06:34:47.300Z,99505.31
2023-05-10T06:37:14.924Z,99510.47
2023-05-10T06:39:42.599Z,99519.97
2023-05-10T06:42:10.334Z,99515.66
2023-05-10T06:44:37.958Z,99522.56
2023-05-10T06:47:05.626Z,99522.59
2023-05-10T06:49:33.167Z,99518.25
2023-05-10T06:52:02.025Z,99521.72
2023-05-10T06:54:29.620Z,99520.84
2023-05-10T06:56:57.194Z,99527.72
2023-05-10T06:59:25.046Z,99534.66
2023-05-10T07:01:52.795Z,99529.44
2023-05-10T07:04:20.389Z,99544.16
2023-05-10T07:06:48.211Z,99538.09
2023-05-10T07:09:17.091Z,99539.84
2023-05-10T07:11:44.656Z,99536.38
2023-05-10T07:14:12.199Z,99544.16
2023-05-10T07:16:39.806Z,99546.75
2023-05-10T07:19:07.414Z,99546.72
2023-05-10T07:21:36.177Z,99551.91
2023-05-10T07:24:03.804Z,99540.69
2023-05-10T07:26:32.775Z,99551.06
2023-05-10T07:29:00.356Z,99543.31
2023-05-10T07:31:28.016Z,99545.03
2023-05-10T07:33:55.570Z,99556.25
2023-05-10T07:36:23.167Z,99550.22
2023-05-10T07:38:51.405Z,99556.28
2023-05-10T07:41:19.073Z,99551.94
2023-05-10T07:43:47.986Z,99560.59
2023-05-10T07:46:15.620Z,99562.31
2023-05-10T07:48:43.651Z,99558.00
2023-05-10T07:51:11.712Z,99548.50
2023-05-10T07:53:39.459Z,99560.56
2023-05-10T07:56:23.169Z,99564.03
2023-05-10T07:58:52.286Z,99564.91
2023-05-10T08:01:20.045Z,99560.59
2023-05-10T08:03:47.861Z,99568.34
2023-05-10T08:06:16.381Z,99572.66
2023-05-10T08:08:43.960Z,99576.97
2023-05-10T08:11:11.478Z,99576.09
2023-05-10T08:13:39.088Z,99570.06
2023-05-10T08:16:08.246Z,99570.06
2023-05-10T08:18:35.924Z,99572.66
2023-05-10T08:21:03.517Z,99570.91
2023-05-10T08:23:31.153Z,99572.63
2023-05-10T08:25:58.770Z,99574.34
2023-05-10T08:28:26.293Z,99573.44
2023-05-10T08:30:53.926Z,99582.97
2023-05-10T08:33:22.973Z,99591.59
2023-05-10T08:35:50.514Z,99589.94
2023-05-10T08:38:18.140Z,99589.06
2023-05-10T08:40:46.591Z,99598.59
2023-05-10T08:43:16.054Z,99609.00
2023-05-10T08:45:46.256Z,99594.28
2023-05-10T08:48:13.837Z,99593.41
2023-05-10T08:50:44.073Z,99598.56
2023-05-10T08:53:14.033Z,99594.25
2023-05-10T08:55:43.618Z,99600.22
2023-05-10T08:58:11.585Z,99595.88
2023-05-10T09:00:39.217Z,99607.09
2023-05-10T09:03:08.084Z,99597.56
2023-05-10T09:05:35.712Z,99598.25
2023-05-10T09:08:04.872Z,99616.50
2023-05-10T09:10:32.944Z,99615.75
2023-05-10T09:13:01.117Z,99601.06
2023-05-10T09:15:28.664Z,99606.09
2023-05-10T09:17:56.621Z,99623.41
2023-05-10T09:20:24.282Z,99612.09
2023-05-10T09:22:51.991Z,99613.91
2023-05-10T09:25:21.600Z,99612.03
2023-05-10T09:27:49.716Z,99618.88
2023-05-10T09:30:18.864Z,99629.38
2023-05-10T09:32:48.067Z,99616.41
2023-05-10T09:35:18.492Z,99629.38
2023-05-10T09:37:48.745Z,99635.56
2023-05-10T09:40:18.632Z,99657.28
2023-05-10T09:42:55.673Z,99653.94
2023-05-10T09:45:23.500Z,99648.75
2023-05-10T09:47:51.255Z,99653.06
2023-05-10T09:50:18.945Z,99646.97
2023-05-10T09:52:51.966Z,99640.06
2023-05-10T09:55:20.778Z,99643.56
2023-05-10T09:57:49.629Z,99651.31
2023-05-10T10:00:21.422Z,99653.91
2023-05-10T10:02:55.823Z,99659.06
2023-05-10T10:05:30.152Z,99655.63
2023-05-10T10:07:59.294Z,99664.28
2023-05-10T10:10:27.212Z,99663.47
2023-05-10T10:12:55.272Z,99664.28
2023-05-10T10:15:25.347Z,99660.72
2023-05-10T10:17:54.666Z,99672.72
2023-05-10T10:20:24.933Z,99663.16
2023-05-10T10:22:52.622Z,99670.16
2023-05-10T10:25:22.807Z,99658.09
2023-05-10T10:28:01.485Z,99664.19
2023-05-10T10:30:37.287Z,99653.84
2023-05-10T10:33:32.744Z,99655.53
2023-05-10T10:36:03.558Z,99657.31
2023-05-10T10:38:39.777Z,99655.66
2023-05-10T10:41:12.004Z,99646.91
2023-05-10T10:43:39.591Z,99662.50
2023-05-10T10:46:15.920Z,99655.47
2023-05-10T10:48:48.947Z,99665.06
2023-05-10T10:51:16.610Z,99663.28
2023-05-10T10:53:45.420Z,99664.09
2023-05-10T10:56:16.235Z,99653.78
2023-05-10T10:58:52.025Z,99656.22
2023-05-10T11:01:21.638Z,99653.50
2023-05-10T11:04:20.664Z,99663.09
2023-05-10T11:06:48.408Z,99655.28
2023-05-10T11:09:15.932Z,99658.63
2023-05-10T11:11:55.856Z,99667.28
2023-05-10T11:14:24.361Z,99665.69
2023-05-10T11:16:53.830Z,99685.59
2023-05-10T11:19:21.630Z,99685.81
2023-05-10T11:21:50.761Z,99674.66
2023-05-10T11:24:20.229Z,99681.47
2023-05-10T11:26:52.317Z,99673.78
2023-05-10T11:29:20.157Z,99667.63
2023-05-10T11:31:49.306Z,99672.78
2023-05-10T11:34:27.051Z,99664.09
2023-05-10T11:36:55.949Z,99673.69
2023-05-10T11:39:28.092Z,99663.22
2023-05-10T11:41:56.199Z,99670.06
2023-05-10T11:44:23.809Z,99665.72
2023-05-10T11:46:51.824Z,99662.25
2023-05-10T11:49:19.852Z,99669.97
2023-05-10T11:51:48.963Z,99675.06
2023-05-10T11:54:16.486Z,99670.16
2023-05-10T11:56:44.099Z,99672.66
2023-05-10T11:59:11.620Z,99672.75
2023-05-10T12:01:39.335Z,99673.50
2023-05-10T12:04:07.238Z,99673.53
2023-05-10T12:06:41.625Z,99673.53
2023-05-10T12:09:11.150Z,99671.00
2023-05-10T12:11:42.510Z,99679.56
2023-05-10T12:14:11.477Z,99672.59
2023-05-10T12:16:39.147Z,99675.31
2023-05-10T12:19:07.229Z,99686.56
2023-05-10T12:21:34.792Z,99685.53
2023-05-10T12:24:04.647Z,99688.22
2023-05-10T12:26:33.961Z,99675.91
2023-05-10T12:29:14.956Z,99679.13
2023-05-10T12:31:56.068Z,99675.63
2023-05-10T12:34:27.760Z,99701.78
2023-05-10T12:36:55.773Z,99688.84
2023-05-10T12:39:23.425Z,99682.59
2023-05-10T12:41:52.622Z,99677.13
2023-05-10T12:44:20.412Z,99676.09
2023-05-10T12:46:48.695Z,99673.13
2023-05-10T12:49:16.214Z,99663.78
2023-05-10T12:51:43.702Z,99665.84
2023-05-10T12:54:11.283Z,99660.34
2023-05-10T12:56:38.937Z,99666.34
2023-05-10T12:59:07.988Z,99670.41
2023-05-10T13:01:35.656Z,99666.63
2023-05-10T13:04:03.292Z,99668.56
2023-05-10T13:06:31.690Z,99649.09
2023-05-10T13:08:59.271Z,99649.25
2023-05-10T13:11:26.909Z,99650.03
2023-05-10T13:13:54.646Z,99645.38
2023-05-10T13:16:23.664Z,99658.34
2023-05-10T13:18:51.531Z,99659.78
2023-05-10T13:21:19.179Z,99658.78
2023-05-10T13:23:47.425Z,99653.66
2023-05-10T13:26:14.992Z,99661.16
2023-05-10T13:28:42.599Z,99652.16
2023-05-10T13:31:10.237Z,99652.97
2023-05-10T13:33:39.124Z,99657.44
2023-05-10T13:36:07.936Z,99649.97
2023-05-10T13:38:35.509Z,99648.78
2023-05-10T13:41:03.105Z,99660.19
2023-05-10T13:43:31.455Z,99643.78
2023-05-10T13:45:59.247Z,99657.56
2023-05-10T13:48:26.801Z,99664.06
2023-05-10T13:50:55.891Z,99650.38
2023-05-10T13:53:23.405Z,99649.84
2023-05-10T13:55:51.301Z,99660.03
2023-05-10T13:58:19.085Z,99643.75
2023-05-10T14:00:46.685Z,99630.91
2023-05-10T14:03:14.376Z,99638.28
2023-05-10T14:05:42.559Z,99627.84
2023-05-10T14:08:11.813Z,99636.03
2023-05-10T14:10:39.451Z,99629.84
2023-05-10T14:13:07.172Z,99626.09
2023-05-10T14:15:34.736Z,99628.91
2023-05-10T14:18:02.623Z,99617.97
2023-05-10T14:20:30.321Z,99631.84
2023-05-10T14:22:57.877Z,99638.69
2023-05-10T14:25:27.019Z,99626.56
2023-05-10T14:27:55.577Z,99633.75
2023-05-10T14:30:23.192Z,99626.72
2023-05-10T14:32:50.802Z,99619.06
2023-05-10T14:35:19.707Z,99626.00
2023-05-10T14:37:47.778Z,99619.97
2023-05-10T14:40:16.091Z,99619.25
2023-05-10T14:42:45.434Z,99625.16
2023-05-10T14:45:13.437Z,99619.78
2023-05-10T14:47:41.083Z,99622.22
2023-05-10T14:50:09.630Z,99619.53
2023-05-10T14:52:37.365Z,99627.81
2023-05-10T14:55:05.374Z,99619.91
2023-05-10T14:57:33.358Z,99621.34
2023-05-10T15:00:02.279Z,99620.88
2023-05-10T15:02:30.412Z,99628.16
2023-05-10T15:04:59.356Z,99627.97
2023-05-10T15:07:27.471Z,99621.19
2023-05-10T15:09:55.070Z,99622.22
2023-05-10T15:12:22.700Z,99620.44
2023-05-10T15:14:50.324Z,99618.06
2023-05-10T15:17:19.203Z,99624.53
2023-05-10T15:19:46.930Z,99627.66
2023-05-10T15:22:14.525Z,99619.50
2023-05-10T15:24:42.184Z,99615.75
2023-05-10T15:27:09.861Z,99621.06
2023-05-10T15:29:37.560Z,99616.88
2023-05-10T15:32:05.382Z,99615.34
2023-05-10T15:34:35.781Z,99622.59
2023-05-10T15:37:04.704Z,99622.22
2023-05-10T15:39:32.273Z,99625.41
2023-05-10T15:41:59.787Z,99626.34
2023-05-10T15:44:27.415Z,99631.00
2023-05-10T15:46:55.127Z,99625.75
2023-05-10T15:49:22.726Z,99627.81
2023-05-10T15:51:51.701Z,99636.19
2023-05-10T15:54:19.274Z,99630.13
2023-05-10T15:56:47.071Z,99633.72
2023-05-10T15:59:14.680Z,99637.16
2023-05-10T16:01:42.267Z,99635.38
2023-05-10T16:04:09.852Z,99645.78
2023-05-10T16:06:38.152Z,99664.13
2023-05-10T16:09:07.193Z,99652.38
2023-05-10T16:11:34.745Z,99644.69
2023-05-10T16:14:02.284Z,99649.25
2023-05-10T16:16:30.058Z,99652.75
2023-05-10T16:18:58.723Z,99649.84
2023-05-10T16:21:26.312Z,99649.75
2023-05-10T16:23:53.861Z,99651.31
2023-05-10T16:26:22.859Z,99653.41
2023-05-10T16:28:50.570Z,99645.44
2023-05-10T16:31:19.980Z,99658.00
2023-05-10T16:33:47.662Z,99656.00
2023-05-10T16:36:15.179Z,99656.44
2023-05-10T16:38:42.684Z,99661.97
2023-05-10T16:41:10.724Z,99664.75
2023-05-10T16:43:39.614Z,99664.00
2023-05-10T16:46:11.572Z,99657.78
2023-05-10T16:48:39.243Z,99652.50
2023-05-10T16:51:07.114Z,99651.00
2023-05-10T16:53:34.702Z,99655.59
2023-05-10T16:56:02.495Z,99660.69
2023-05-10T16:58:30.079Z,99653.13
2023-05-10T17:00:58.959Z,99655.19
2023-05-10T17:03:26.742Z,99651.03
2023-05-10T17:05:54.411Z,99657.56
2023-05-10T17:08:23.144Z,99658.88
2023-05-10T17:10:50.745Z,99658.88
2023-05-10T17:13:18.566Z,99657.41
2023-05-10T17:15:47.345Z,99659.38
2023-05-10T17:18:16.557Z,99657.75
2023-05-10T17:20:45.374Z,99662.19
2023-05-10T17:23:12.943Z,99669.09
2023-05-10T17:25:41.889Z,99659.53
2023-05-10T17:28:09.591Z,99659.69
2023-05-10T17:30:37.107Z,99659.09
2023-05-10T17:33:04.878Z,99667.72
2023-05-10T17:35:34.008Z,99673.66
2023-05-10T17:38:01.880Z,99673.84
2023-05-10T17:40:29.665Z,99673.84
2023-05-10T17:42:57.233Z,99674.78
2023-05-10T17:45:24.795Z,99673.84
2023-05-10T17:47:52.445Z,99672.16
2023-05-10T17:50:20.154Z,99679.94
2023-05-10T17:52:49.143Z,99679.22
2023-05-10T17:55:17.255Z,99677.63
2023-05-10T17:57:45.137Z,99682.78
2023-05-10T18:00:14.091Z,99686.34
2023-05-10T18:02:42.405Z,99690.66
2023-05-10T18:05:10.917Z,99684.59
2023-05-10T18:07:38.736Z,99687.19
2023-05-10T18:10:08.946Z,99688.06
2023-05-10T18:12:36.479Z,99684.47
2023-05-10T18:15:04.471Z,99691.09
2023-05-10T18:17:33.393Z,99687.28
2023-05-10T18:20:01.025Z,99691.66
2023-05-10T18:22:28.685Z,99694.38
2023-05-10T18:24:56.350Z,99692.78
2023-05-10T18:27:25.308Z,99687.69
2023-05-10T18:29:52.901Z,99694.84
2023-05-10T18:32:20.499Z,99681.09
2023-05-10T18:34:48.038Z,99689.91
2023-05-10T18:37:15.878Z,99686.56
2023-05-10T18:39:43.635Z,99695.28
2023-05-10T18:42:11.236Z,99700.53
2023-05-10T18:44:40.148Z,99697.13
2023-05-10T18:47:08.382Z,99691.94
2023-05-10T18:49:35.946Z,99696.31
2023-05-10T18:52:03.595Z,99690.25
2023-05-10T18:54:31.179Z,99702.41
2023-05-10T18:56:58.944Z,99704.09
2023-05-10T18:59:27.709Z,99704.91
2023-05-10T19:01:57.450Z,99703.19
2023-05-10T19:04:25.423Z,99710.13
2023-05-10T19:06:53.025Z,99711.84
2023-05-10T19:09:21.033Z,99714.38
2023-05-10T19:11:48.626Z,99721.28
2023-05-10T19:14:16.284Z,99728.16
2023-05-10T19:16:44.030Z,99726.38
2023-05-10T19:19:14.410Z,99733.22
2023-05-10T19:21:41.973Z,99737.50
2023-05-10T19:24:10.785Z,99738.28
2023-05-10T19:26:38.820Z,99741.69
2023-05-10T19:29:06.383Z,99745.09
2023-05-10T19:31:34.424Z,99747.66
2023-05-10T19:34:02.040Z,99745.81
2023-05-10T19:36:30.987Z,99751.91
2023-05-10T19:38:58.479Z,99747.47
2023-05-10T19:41:26.156Z,99745.66
2023-05-10T19:43:53.838Z,99750.81
2023-05-10T19:46:21.523Z,99757.66
2023-05-10T19:48:50.910Z,99751.56
2023-05-10T19:51:18.692Z,99750.72
2023-05-10T19:53:47.670Z,99756.66
2023-05-10T19:56:16.439Z,99749.75
2023-05-10T19:58:43.958Z,99751.44
2023-05-10T20:01:11.562Z,99757.47
2023-05-10T20:03:39.140Z,99761.72
2023-05-10T20:06:06.797Z,99756.59
2023-05-10T20:08:34.450Z,99757.47
2023-05-10T20:11:03.874Z,99756.59
2023-05-10T20:13:31.638Z,99763.50
2023-05-10T20:16:00.036Z,99756.59
2023-05-10T20:18:27.843Z,99764.34
2023-05-10T20:20:56.076Z,99763.41
2023-05-10T20:23:23.806Z,99764.22
2023-05-10T20:25:51.607Z,99769.31
2023-05-10T20:28:23.280Z,99764.97
2023-05-10T20:30:53.225Z,99758.06
2023-05-10T20:33:20.946Z,99761.47
2023-05-10T20:35:49.561Z,99763.97
2023-05-10T20:38:18.054Z,99754.47
2023-05-10T20:40:46.432Z,99763.91
2023-05-10T20:43:14.028Z,99762.97
2023-05-10T20:45:43.028Z,99759.53
2023-05-10T20:48:10.679Z,99763.84
2023-05-10T20:50:38.193Z,99756.88
2023-05-10T20:53:06.021Z,99755.09
2023-05-10T20:55:33.605Z,99756.78
2023-05-10T20:58:03.438Z,99757.63
2023-05-10T21:00:32.416Z,99762.72
2023-05-10T21:03:01.314Z,99753.25
2023-05-10T21:05:29.069Z,99760.13
2023-05-10T21:07:56.778Z,99761.00
2023-05-10T21:10:25.497Z,99755.78
2023-05-10T21:12:53.034Z,99754.00
2023-05-10T21:15:22.488Z,99748.81
2023-05-10T21:17:50.077Z,99750.47
2023-05-10T21:20:19.204Z,99746.13
2023-05-10T21:22:46.903Z,99753.88
2023-05-10T21:25:14.758Z,99753.81
2023-05-10T21:27:42.345Z,99746.84
2023-05-10T21:30:10.945Z,99747.69
2023-05-10T21:32:38.549Z,99746.72
2023-05-10T21:35:07.268Z,99752.66
2023-05-10T21:37:36.126Z,99742.22
2023-05-10T21:40:04.629Z,99741.25
2023-05-10T21:42:32.503Z,99746.41
2023-05-10T21:45:00.057Z,99748.03
2023-05-10T21:47:27.972Z,99746.31
2023-05-10T21:49:55.532Z,99741.16
2023-05-10T21:52:23.150Z,99742.84
2023-05-10T21:54:51.994Z,99737.66
2023-05-10T21:57:21.337Z,99745.31
2023-05-10T21:59:48.995Z,99738.44
2023-05-10T22:02:16.806Z,99734.13
2023-05-10T22:04:44.397Z,99739.19
2023-05-10T22:07:11.973Z,99736.66
2023-05-10T22:09:39.543Z,99734.91
2023-05-10T22:12:08.517Z,99734.00
2023-05-10T22:14:36.167Z,99733.13
2023-05-10T22:17:03.726Z,99734.00
2023-05-10T22:19:31.284Z,99733.97
2023-05-10T22:21:58.836Z,99739.16
2023-05-10T22:24:26.421Z,99737.41
2023-05-10T22:26:55.085Z,99740.06
2023-05-10T22:29:24.151Z,99756.34
2023-05-10T22:31:51.851Z,99747.66
2023-05-10T22:34:19.409Z,99747.59
2023-05-10T22:36:46.965Z,99744.13
2023-05-10T22:39:14.474Z,99750.13
2023-05-10T22:41:42.022Z,99745.84
2023-05-10T22:44:09.892Z,99750.16
2023-05-10T22:46:39.388Z,99737.25
2023-05-10T22:49:07.207Z,99745.84
2023-05-10T22:51:35.407Z,99750.06
2023-05-10T22:54:03.052Z,99750.81
2023-05-10T22:56:31.585Z,99740.50
2023-05-10T22:58:59.167Z,99745.66
2023-05-10T23:01:26.843Z,99745.66
2023-05-10T23:03:56.874Z,99753.31
2023-05-10T23:06:24.396Z,99750.69
2023-05-10T23:08:51.981Z,99757.50
2023-05-10T23:11:19.533Z,99761.72
2023-05-10T23:13:47.084Z,99752.25
2023-05-10T23:16:14.779Z,99763.41
2023-05-10T23:18:42.392Z,99756.44
2023-05-10T23:21:11.321Z,99765.03
2023-05-10T23:23:38.903Z,99764.03
2023-05-10T23:26:06.541Z,99757.13
2023-05-10T23:28:34.178Z,99767.38
2023-05-10T23:31:01.827Z,99765.56
2023-05-10T23:33:29.418Z,99769.81
2023-05-10T23:35:56.940Z,99768.91
2023-05-10T23:38:26.073Z,99766.31
2023-05-10T23:40:54.356Z,99767.16
2023-05-10T23:43:21.934Z,99772.22
2023-05-10T23:45:59.367Z,99768.78
2023-05-10T23:48:27.109Z,99765.19
2023-05-10T23:50:54.658Z,99762.66
2023-05-10T23:53:22.177Z,99755.81
2023-05-10T23:55:51.131Z,99753.19
2023-05-10T23:58:18.685Z,99754.88
